ADDS METAR Data INFO
IDs: Format: Raw Decoded Include TAF

Data at: 1926 UTC 19 Jul 2018

KBVX 191856Z AUTO 07009KT 10SM SCT028 OVC039 32/26 A2989 RMK AO2 SLP119 T03220261
KBVX 191852Z AUTO 10008KT 10SM SCT028 BKN036 OVC045 32/26 A2989 RMK AO2
KBVX 191822Z AUTO 06009KT 10SM BKN026 33/26 A2989 RMK AO2
KBVX 191756Z AUTO 10007KT 10SM FEW022 32/26 A2990 RMK AO2 SLP120 T03170261 10317 20233 58009
KBVX 191749Z AUTO VRB05KT 10SM FEW002 SCT022 SCT035 32/26 A2990 RMK AO2
KBVX 191656Z AUTO 06008KT 10SM FEW018 BKN023 OVC031 30/26 A2991 RMK AO2 SLP125 T03000256
KBVX 191556Z AUTO 00000KT 10SM BKN018 29/24 A2992 RMK AO2 SLP128 T02890244
KBVX 191544Z AUTO 15004KT 10SM BKN016 29/24 A2992 RMK AO2
KBVX 191456Z AUTO 00000KT 10SM FEW002 BKN010 27/24 A2992 RMK AO2 SLP128 T02670239 56012
KBVX 191451Z AUTO 12005KT 10SM FEW002 BKN010 27/24 A2993 RMK AO2
KBVX 191444Z AUTO 00000KT 10SM 26/24 A2993 RMK AO2
KBVX 191356Z AUTO 10005KT 10SM BKN010 26/23 A2995 RMK AO2 CIG 006V011 SLP136 T02560233
KBVX 191349Z AUTO 11004KT 10SM FEW005 BKN010 26/23 A2995 RMK AO2
KBVX 191322Z AUTO 16003KT 6SM BR SCT005 SCT012 24/23 A2995 RMK AO2
KBVX 191307Z AUTO 00000KT 5SM BR SCT005 BKN012 24/23 A2996 RMK AO2
KBVX 191256Z AUTO 00000KT 4SM BR SCT005 24/23 A2996 RMK AO2 SLP141 T02390228
KBVX 191156Z AUTO 00000KT 3SM BR OVC005 23/22 A2995 RMK AO2 SLP139 70006 T02330222 10239 20228 51004
KBVX 191140Z AUTO 10004KT 2SM BR OVC005 23/22 A2995 RMK AO2
KBVX 191111Z AUTO 09003KT 1 3/4SM BR OVC005 23/22 A2995 RMK AO2
KBVX 191056Z AUTO 00000KT 2 1/2SM BR OVC005 23/22 A2995 RMK AO2 SLP137 T02280222
KBVX 191053Z AUTO 07003KT 3SM BR OVC005 23/22 A2995 RMK AO2
KBVX 190956Z AUTO 00000KT 4SM BR OVC003 23/22 A2994 RMK AO2 SLP134 T02280222
KBVX 190856Z AUTO 00000KT 3SM BR BKN003 BKN050 OVC065 23/23 A2994 RMK AO2 SLP134 T02280228 57007
KBVX 190849Z AUTO 00000KT 3SM BR SCT003 SCT050 BKN065 23/23 A2994 RMK AO2
KBVX 190834Z AUTO 00000KT 2 1/2SM BR BKN003 OVC060 23/23 A2994 RMK AO2 CIG 002V008
KBVX 190826Z AUTO 00000KT 3SM BR BKN003 OVC007 23/23 A2995 RMK AO2
KBVX 190756Z AUTO 07004KT 2 1/2SM BR OVC003 23/23 A2995 RMK AO2 SLP136 T02330228
KBVX 190742Z AUTO 11004KT 2 1/2SM BR OVC003 24/23 A2995 RMK AO2
KBVX 190719Z AUTO 11004KT 3SM BR OVC003 24/23 A2995 RMK AO2
KBVX 190709Z AUTO 11003KT 2 1/2SM BR OVC003 24/23 A2995 RMK AO2
KBVX 190656Z AUTO 06003KT 1 1/4SM BR OVC003 24/23 A2996 RMK AO2 VIS 3/4V2 SLP141 T02390233
KBVX 190643Z AUTO 07004KT 1 1/4SM BR OVC003 24/23 A2996 RMK AO2
KBVX 190633Z AUTO 07003KT 3/4SM BR OVC003 24/23 A2996 RMK AO2 VIS 1/2V2 RVRNO
KBVX 190608Z AUTO 06003KT 1 3/4SM BR BKN003 24/23 A2996 RMK AO2
KBVX 190556Z AUTO 06003KT 4SM BR BKN003 23/23 A2996 RMK AO2 SLP141 60001 T02330233 10250 20233 50002
KBVX 190456Z AUTO 00000KT 3SM BR OVC003 24/23 A2996 RMK AO2 SLP141 T02390233 402940228
KBVX 190410Z AUTO 09005KT 3SM BR BKN003 24/24 A2996 RMK AO2
KBVX 190356Z AUTO 06003KT 3SM BR FEW003 24/23 A2996 RMK AO2 SLP141 T02390233
KBVX 190328Z AUTO 09003KT 4SM BR SCT003 24/24 A2996 RMK AO2
KBVX 190245Z AUTO 07005KT 3SM BR BKN003 24/24 A2996 RMK AO2
KBVX 190223Z AUTO 08004KT 3SM BR SCT003 24/24 A2995 RMK AO2
KBVX 190156Z AUTO 04003KT 5SM BR OVC005 24/24 A2995 RMK AO2 SLP136 T02440239
KBVX 190147Z AUTO 00000KT 4SM BR BKN007 24/24 A2994 RMK AO2
KBVX 190103Z AUTO 14003KT 7SM FEW004 24/24 A2994 RMK AO2
KBVX 190056Z AUTO 12004KT 7SM BKN004 24/24 A2993 RMK AO2 RAE12 SLP132 P0001 T02440239
KBVX 190021Z AUTO 06005KT 9SM BKN004 25/24 A2994 RMK AO2 RAE12 P0001
KBVX 182356Z AUTO 10005KT 10SM -RA SCT006 BKN043 BKN055 25/24 A2993 RMK AO2 SLP131 P0003 60005 T02500244 10294 20244 56014
KBVX 182353Z AUTO 08006KT 10SM -RA SCT006 SCT043 BKN055 25/24 A2993 RMK AO2 P0003
KBVX 182256Z AUTO 36003KT 9SM RA FEW042 BKN060 OVC080 25/23 A2996 RMK AO2 RAB18 SLP142 P0002 T02500233
KBVX 182156Z AUTO 09006KT 10SM FEW011 SCT110 26/23 A2997 RMK AO2 LTG DSNT S AND W SLP145 T02560228
KBVX 182056Z AUTO 12007KT 10SM CLR 26/22 A2997 RMK AO2 LTG DSNT NE-SE TSE16B17E20B22E42 SLP145 60000 T02560217 56006
KBVX 182048Z AUTO 08010KT 10SM CLR 26/21 A2997 RMK AO2 LTG DSNT NE-SE TSE16B17E20B22E42
KBVX 182022Z AUTO 02011G16KT 10SM VCTS FEW001 SCT037 26/22 A2997 RMK AO2 LTG DSNT ALQDS TSE16B17E20B22
KBVX 182018Z AUTO 03009G16KT 10SM VCTS FEW001 SCT020 BKN037 26/22 A2997 RMK AO2 LTG DSNT ALQDS TSE16B17
KBVX 182016Z AUTO 04008G16KT 10SM FEW001 SCT020 BKN028 26/22 A2997 RMK AO2 TSE16
KBVX 182014Z AUTO 03012G16KT 10SM VCTS FEW001 SCT020 BKN030 26/22 A2997 RMK AO2 LTG DSNT ALQDS
KBVX 181956Z AUTO 05012G18KT 10SM VCTS BKN018 OVC025 26/21 A2997 RMK AO2 LTG DSNT N-E TSB25E27B29 SLP145 T02610211
KBVX 181929Z AUTO 00000KT 10SM TS BKN016 29/25 A2997 RMK AO2 LTG DSNT N-E TSB25E27B29
KBVX 181925Z AUTO 00000KT 10SM TS BKN016 29/26 A2996 RMK AO2 LTG DSNT N-E TSB25
KBVX 181915Z AUTO 22005KT 10SM SCT016 29/26 A2995 RMK AO2 LTG DSNT NW-E
KBVX 181856Z AUTO 27005KT 10SM BKN016 29/26 A2996 RMK AO2 LTG DSNT NW-NE RAB27E38 SLP140 P0000 T02890256
KBVX 181756Z AUTO 00000KT 10SM OVC016 28/25 A2999 RMK AO2 SLP150 60000 T02830250 10283 20228 56014
KBVX 181710Z AUTO 12005KT 10SM BKN012 BKN090 28/25 A2999 RMK AO2
KBVX 181656Z AUTO 12005KT 10SM FEW002 SCT012 BKN090 28/25 A3000 RMK AO2 RAB03E16 SLP152 P0000 T02830250
KBVX 181613Z AUTO VRB03KT 9SM -RA SCT008 SCT023 BKN030 27/24 A3002 RMK AO2 RAB03 P0000
KBVX 181556Z AUTO 00000KT 7SM OVC008 27/24 A3002 RMK AO2 CIG 007V011 SLP160 T02670244
KBVX 181456Z AUTO 00000KT 3SM BR BKN006 25/24 A3003 RMK AO2 RAB14E25 CIG 003V009 SLP165 P0000 60000 T02500239 53003
KBVX 181416Z AUTO 00000KT 4SM -RA BR SCT002 BKN008 BKN120 24/23 A3002 RMK AO2 RAB14 P0000
KBVX 181356Z AUTO 00000KT 4SM BR FEW002 SCT120 24/23 A3002 RMK AO2 SLP162 T02390233
KBVX 181339Z AUTO 26003KT 5SM BR FEW002 24/23 A3002 RMK AO2
KBVX 181256Z AUTO 00000KT 4SM BR SCT046 BKN120 23/23 A3002 RMK AO2 SLP162 T02330233
KBVX 181156Z AUTO 00000KT 4SM BR BKN046 23/23 A3002 RMK AO2 RAE10 SLP162 P0001 60001 70020 T02280228 10228 20228 53007
KBVX 181056Z AUTO 00000KT 6SM -RA BR FEW065 BKN100 23/23 A3000 RMK AO2 RAB0959E20B44 SLP157 P0000 T02280228
KBVX 180956Z AUTO 00000KT 6SM BR FEW070 OVC095 23/22 A3000 RMK AO2 SLP156 T02280222
KBVX 180856Z AUTO 00000KT 6SM BR FEW110 23/22 A3000 RMK AO2 SLP152 T02280222 58005
KBVX 180756Z AUTO 30003KT 5SM BR CLR 23/22 A3000 RMK AO2 SLP154 T02280222